sensor_id;sensor_type;location;lat;lon;timestamp;pressure;altitude;pressure_sealevel;temperature;humidity
44979;BME280;67464;52.438;-1.904;2023-02-19T00:00:20;100681.02;;;6.75;92.85
44979;BME280;67464;52.438;-1.904;2023-02-19T00:02:46;100679.83;;;6.08;98.75
44979;BME280;67464;52.438;-1.904;2023-02-19T00:05:11;100684.19;;;6.78;92.94
44979;BME280;67464;52.438;-1.904;2023-02-19T00:07:37;100687.02;;;6.97;93.98
44979;BME280;67464;52.438;-1.904;2023-02-19T00:10:03;100687.45;;;6.93;97.04
44979;BME280;67464;52.438;-1.904;2023-02-19T00:12:28;100693.82;;;6.57;98.23
44979;BME280;67464;52.438;-1.904;2023-02-19T00:14:54;100694.08;;;7.44;93.10
44979;BME280;67464;52.438;-1.904;2023-02-19T00:17:19;100695.05;;;7.05;93.98
44979;BME280;67464;52.438;-1.904;2023-02-19T00:19:45;100707.01;;;6.23;96.28
44979;BME280;67464;52.438;-1.904;2023-02-19T00:22:11;100711.92;;;7.06;92.88
44979;BME280;67464;52.438;-1.904;2023-02-19T00:24:37;100714.52;;;6.76;93.30
44979;BME280;67464;52.438;-1.904;2023-02-19T00:27:03;100718.11;;;7.25;94.76
44979;BME280;67464;52.438;-1.904;2023-02-19T00:29:28;100719.06;;;7.08;91.57
44979;BME280;67464;52.438;-1.904;2023-02-19T00:31:54;100716.45;;;7.24;91.42
44979;BME280;67464;52.438;-1.904;2023-02-19T00:34:19;100721.39;;;7.20;89.72
44979;BME280;67464;52.438;-1.904;2023-02-19T00:36:45;100727.80;;;7.53;88.07
44979;BME280;67464;52.438;-1.904;2023-02-19T00:39:13;100736.04;;;8.38;83.35
44979;BME280;67464;52.438;-1.904;2023-02-19T00:41:37;100740.36;;;7.83;85.62
44979;BME280;67464;52.438;-1.904;2023-02-19T00:44:04;100745.43;;;7.16;90.60
44979;BME280;67464;52.438;-1.904;2023-02-19T00:46:29;100748.19;;;6.66;91.44
44979;BME280;67464;52.438;-1.904;2023-02-19T00:48:54;100745.18;;;7.66;92.77
44979;BME280;67464;52.438;-1.904;2023-02-19T00:51:20;100744.08;;;7.15;91.26
44979;BME280;67464;52.438;-1.904;2023-02-19T00:53:44;100749.19;;;7.27;94.30
44979;BME280;67464;52.438;-1.904;2023-02-19T00:56:11;100747.84;;;7.74;91.49
44979;BME280;67464;52.438;-1.904;2023-02-19T00:58:36;100756.32;;;7.24;92.23
44979;BME280;67464;52.438;-1.904;2023-02-19T01:01:02;100748.59;;;7.82;91.93
44979;BME280;67464;52.438;-1.904;2023-02-19T01:03:27;100747.85;;;8.17;85.92
44979;BME280;67464;52.438;-1.904;2023-02-19T01:05:53;100756.46;;;7.18;91.87
44979;BME280;67464;52.438;-1.904;2023-02-19T01:08:19;100748.15;;;7.01;93.85
44979;BME280;67464;52.438;-1.904;2023-02-19T01:10:45;100751.65;;;7.29;94.39
44979;BME280;67464;52.438;-1.904;2023-02-19T01:13:10;100748.90;;;7.48;91.98
44979;BME280;67464;52.438;-1.904;2023-02-19T01:15:36;100745.47;;;7.24;93.27
44979;BME280;67464;52.438;-1.904;2023-02-19T01:18:01;100753.34;;;7.24;94.06
44979;BME280;67464;52.438;-1.904;2023-02-19T01:20:27;100750.20;;;7.11;94.06
44979;BME280;67464;52.438;-1.904;2023-02-19T01:22:53;100744.46;;;6.52;98.46
44979;BME280;67464;52.438;-1.904;2023-02-19T01:25:18;100741.38;;;7.03;97.11
44979;BME280;67464;52.438;-1.904;2023-02-19T01:27:44;100742.24;;;6.90;97.66
44979;BME280;67464;52.438;-1.904;2023-02-19T01:30:10;100739.31;;;6.97;96.34
44979;BME280;67464;52.438;-1.904;2023-02-19T01:32:35;100737.80;;;6.66;99.98
44979;BME280;67464;52.438;-1.904;2023-02-19T01:35:01;100737.91;;;6.92;96.86
44979;BME280;67464;52.438;-1.904;2023-02-19T01:37:26;100738.89;;;7.17;94.84
44979;BME280;67464;52.438;-1.904;2023-02-19T01:39:52;100740.46;;;6.65;94.96
44979;BME280;67464;52.438;-1.904;2023-02-19T01:42:18;100751.30;;;6.76;98.41
44979;BME280;67464;52.438;-1.904;2023-02-19T01:47:09;100770.06;;;6.36;99.60
44979;BME280;67464;52.438;-1.904;2023-02-19T01:49:38;100771.29;;;6.37;100.00
44979;BME280;67464;52.438;-1.904;2023-02-19T01:52:02;100771.29;;;5.93;100.00
44979;BME280;67464;52.438;-1.904;2023-02-19T01:54:28;100775.43;;;6.75;98.38
44979;BME280;67464;52.438;-1.904;2023-02-19T01:56:52;100776.25;;;6.54;99.02
44979;BME280;67464;52.438;-1.904;2023-02-19T01:59:18;100779.72;;;6.58;100.00
44979;BME280;67464;52.438;-1.904;2023-02-19T02:01:44;100772.87;;;6.61;100.00
44979;BME280;67464;52.438;-1.904;2023-02-19T02:04:11;100771.03;;;6.27;100.00
44979;BME280;67464;52.438;-1.904;2023-02-19T02:06:38;100775.60;;;6.50;98.79
44979;BME280;67464;52.438;-1.904;2023-02-19T02:09:01;100781.01;;;6.27;97.28
44979;BME280;67464;52.438;-1.904;2023-02-19T02:11:26;100784.64;;;7.34;91.66
44979;BME280;67464;52.438;-1.904;2023-02-19T02:13:52;100798.44;;;7.29;88.65
44979;BME280;67464;52.438;-1.904;2023-02-19T02:16:22;100800.55;;;7.86;86.05
44979;BME280;67464;52.438;-1.904;2023-02-19T02:18:53;100804.91;;;7.03;89.14
44979;BME280;67464;52.438;-1.904;2023-02-19T02:21:27;100807.79;;;7.65;87.70
44979;BME280;67464;52.438;-1.904;2023-02-19T02:23:42;100802.28;;;7.67;86.30
44979;BME280;67464;52.438;-1.904;2023-02-19T02:26:08;100802.88;;;7.62;85.39
44979;BME280;67464;52.438;-1.904;2023-02-19T02:28:45;100798.31;;;7.39;84.88
44979;BME280;67464;52.438;-1.904;2023-02-19T02:30:53;100804.25;;;7.10;90.93
44979;BME280;67464;52.438;-1.904;2023-02-19T02:33:23;100806.38;;;6.70;95.84
44979;BME280;67464;52.438;-1.904;2023-02-19T02:35:46;100805.64;;;6.98;93.99
44979;BME280;67464;52.438;-1.904;2023-02-19T02:38:10;100809.84;;;7.23;92.19
44979;BME280;67464;52.438;-1.904;2023-02-19T02:40:34;100804.94;;;7.21;87.24
44979;BME280;67464;52.438;-1.904;2023-02-19T02:43:00;100806.15;;;7.65;84.21
44979;BME280;67464;52.438;-1.904;2023-02-19T02:45:29;100814.54;;;7.93;83.25
44979;BME280;67464;52.438;-1.904;2023-02-19T02:47:53;100817.39;;;7.73;83.46
44979;BME280;67464;52.438;-1.904;2023-02-19T02:50:20;100822.51;;;7.24;87.12
44979;BME280;67464;52.438;-1.904;2023-02-19T02:52:44;100823.49;;;7.80;84.45
44979;BME280;67464;52.438;-1.904;2023-02-19T02:55:08;100821.72;;;7.70;83.88
44979;BME280;67464;52.438;-1.904;2023-02-19T02:57:33;100823.42;;;7.57;86.10
44979;BME280;67464;52.438;-1.904;2023-02-19T02:59:59;100828.36;;;7.81;83.74
44979;BME280;67464;52.438;-1.904;2023-02-19T03:02:27;100826.68;;;6.78;88.84
44979;BME280;67464;52.438;-1.904;2023-02-19T03:04:53;100833.94;;;8.40;80.59
44979;BME280;67464;52.438;-1.904;2023-02-19T03:07:16;100836.41;;;7.69;80.92
44979;BME280;67464;52.438;-1.904;2023-02-19T03:09:42;100838.89;;;7.46;78.46
44979;BME280;67464;52.438;-1.904;2023-02-19T03:12:10;100841.26;;;7.79;79.96
44979;BME280;67464;52.438;-1.904;2023-02-19T03:14:38;100843.25;;;7.24;81.78
44979;BME280;67464;52.438;-1.904;2023-02-19T03:17:03;100844.47;;;7.18;83.49
44979;BME280;67464;52.438;-1.904;2023-02-19T03:19:26;100848.36;;;7.80;81.13
44979;BME280;67464;52.438;-1.904;2023-02-19T03:21:54;100846.65;;;8.21;77.26
44979;BME280;67464;52.438;-1.904;2023-02-19T03:24:17;100855.55;;;7.70;80.35
44979;BME280;67464;52.438;-1.904;2023-02-19T03:26:43;100846.67;;;7.60;82.85
44979;BME280;67464;52.438;-1.904;2023-02-19T03:29:09;100848.71;;;8.32;76.47
44979;BME280;67464;52.438;-1.904;2023-02-19T03:31:35;100854.62;;;7.82;78.32
44979;BME280;67464;52.438;-1.904;2023-02-19T03:34:02;100853.86;;;7.59;81.09
44979;BME280;67464;52.438;-1.904;2023-02-19T03:36:27;100854.70;;;8.28;77.72
44979;BME280;67464;52.438;-1.904;2023-02-19T03:38:53;100862.06;;;8.40;76.40
44979;BME280;67464;52.438;-1.904;2023-02-19T03:41:21;100870.19;;;7.64;80.05
44979;BME280;67464;52.438;-1.904;2023-02-19T03:43:49;100872.40;;;7.20;83.74
44979;BME280;67464;52.438;-1.904;2023-02-19T03:46:10;100873.28;;;7.81;84.21
44979;BME280;67464;52.438;-1.904;2023-02-19T03:48:35;100880.86;;;7.99;81.56
44979;BME280;67464;52.438;-1.904;2023-02-19T03:51:11;100903.03;;;8.52;81.07
44979;BME280;67464;52.438;-1.904;2023-02-19T03:53:29;100911.05;;;8.33;77.55
44979;BME280;67464;52.438;-1.904;2023-02-19T03:55:56;100915.24;;;8.57;77.32
44979;BME280;67464;52.438;-1.904;2023-02-19T03:58:21;100921.94;;;8.70;78.82
44979;BME280;67464;52.438;-1.904;2023-02-19T04:00:45;100915.31;;;8.47;76.53
44979;BME280;67464;52.438;-1.904;2023-02-19T04:03:12;100915.53;;;8.32;76.86
44979;BME280;67464;52.438;-1.904;2023-02-19T04:05:36;100918.15;;;8.16;78.31
44979;BME280;67464;52.438;-1.904;2023-02-19T04:08:03;100922.00;;;7.65;79.94
44979;BME280;67464;52.438;-1.904;2023-02-19T04:10:25;100923.97;;;7.69;80.87
44979;BME280;67464;52.438;-1.904;2023-02-19T04:12:54;100921.54;;;7.95;82.78
44979;BME280;67464;52.438;-1.904;2023-02-19T04:15:19;100923.87;;;7.03;91.76
44979;BME280;67464;52.438;-1.904;2023-02-19T04:17:45;100923.44;;;6.57;91.90
44979;BME280;67464;52.438;-1.904;2023-02-19T04:20:09;100929.51;;;6.68;93.99
44979;BME280;67464;52.438;-1.904;2023-02-19T04:22:34;100926.70;;;7.15;88.65
44979;BME280;67464;52.438;-1.904;2023-02-19T04:24:58;100932.22;;;7.64;87.88
44979;BME280;67464;52.438;-1.904;2023-02-19T04:27:24;100939.61;;;7.29;87.12
44979;BME280;67464;52.438;-1.904;2023-02-19T04:29:50;100944.43;;;7.87;89.60
44979;BME280;67464;52.438;-1.904;2023-02-19T04:32:16;100941.96;;;7.48;89.13
44979;BME280;67464;52.438;-1.904;2023-02-19T04:34:41;100949.99;;;7.62;89.27
44979;BME280;67464;52.438;-1.904;2023-02-19T04:37:07;100960.36;;;7.90;84.93
44979;BME280;67464;52.438;-1.904;2023-02-19T04:39:33;100976.43;;;8.01;86.53
44979;BME280;67464;52.438;-1.904;2023-02-19T04:41:59;100993.90;;;7.43;92.89
44979;BME280;67464;52.438;-1.904;2023-02-19T04:44:24;100991.09;;;7.93;90.52
44979;BME280;67464;52.438;-1.904;2023-02-19T04:46:50;101004.75;;;7.06;95.06
44979;BME280;67464;52.438;-1.904;2023-02-19T04:49:15;101008.29;;;6.86;96.78
44979;BME280;67464;52.438;-1.904;2023-02-19T04:51:40;101012.20;;;6.86;99.17
44979;BME280;67464;52.438;-1.904;2023-02-19T04:54:06;101011.64;;;6.72;97.62
44979;BME280;67464;52.438;-1.904;2023-02-19T04:56:32;101011.24;;;7.36;91.63
44979;BME280;67464;52.438;-1.904;2023-02-19T04:58:58;101011.14;;;6.48;95.38
44979;BME280;67464;52.438;-1.904;2023-02-19T05:01:23;101019.12;;;6.72;95.85
44979;BME280;67464;52.438;-1.904;2023-02-19T05:03:49;101017.11;;;6.19;100.00
44979;BME280;67464;52.438;-1.904;2023-02-19T05:06:15;101015.43;;;6.14;98.28
44979;BME280;67464;52.438;-1.904;2023-02-19T05:08:41;101017.97;;;5.95;98.98
44979;BME280;67464;52.438;-1.904;2023-02-19T05:11:08;101027.82;;;6.51;95.79
44979;BME280;67464;52.438;-1.904;2023-02-19T05:13:33;101041.55;;;6.70;95.25
44979;BME280;67464;52.438;-1.904;2023-02-19T05:15:59;101054.07;;;6.23;95.75
44979;BME280;67464;52.438;-1.904;2023-02-19T05:18:23;101059.74;;;6.56;92.97
44979;BME280;67464;52.438;-1.904;2023-02-19T05:20:49;101061.06;;;6.98;90.34
44979;BME280;67464;52.438;-1.904;2023-02-19T05:23:15;101065.72;;;6.98;90.96
44979;BME280;67464;52.438;-1.904;2023-02-19T05:25:40;101065.07;;;6.71;92.36
44979;BME280;67464;52.438;-1.904;2023-02-19T05:28:06;101069.51;;;6.77;89.17
44979;BME280;67464;52.438;-1.904;2023-02-19T05:30:32;101072.68;;;6.34;89.61
44979;BME280;67464;52.438;-1.904;2023-02-19T05:32:58;101081.80;;;6.19;93.29
44979;BME280;67464;52.438;-1.904;2023-02-19T05:35:23;101081.29;;;6.22;90.33
44979;BME280;67464;52.438;-1.904;2023-02-19T05:37:49;101091.00;;;5.93;91.74
44979;BME280;67464;52.438;-1.904;2023-02-19T05:40:14;101092.95;;;6.01;94.93
44979;BME280;67464;52.438;-1.904;2023-02-19T05:42:40;101098.28;;;6.06;92.64
44979;BME280;67464;52.438;-1.904;2023-02-19T05:45:07;101103.65;;;6.11;92.54
44979;BME280;67464;52.438;-1.904;2023-02-19T05:47:32;101096.02;;;5.86;95.45
44979;BME280;67464;52.438;-1.904;2023-02-19T05:49:57;101096.93;;;5.85;91.25
44979;BME280;67464;52.438;-1.904;2023-02-19T05:52:23;101093.33;;;5.29;92.78
44979;BME280;67464;52.438;-1.904;2023-02-19T05:54:49;101087.33;;;4.81;98.10
44979;BME280;67464;52.438;-1.904;2023-02-19T05:57:15;101088.10;;;5.32;99.84
44979;BME280;67464;52.438;-1.904;2023-02-19T05:59:41;101092.49;;;5.10;97.24
44979;BME280;67464;52.438;-1.904;2023-02-19T06:02:08;101080.00;;;5.43;97.41
44979;BME280;67464;52.438;-1.904;2023-02-19T06:04:32;101074.48;;;5.49;94.20
44979;BME280;67464;52.438;-1.904;2023-02-19T06:06:58;101078.05;;;5.75;91.22
44979;BME280;67464;52.438;-1.904;2023-02-19T06:09:24;101090.98;;;6.37;87.19
44979;BME280;67464;52.438;-1.904;2023-02-19T06:11:50;101092.82;;;5.99;82.81
44979;BME280;67464;52.438;-1.904;2023-02-19T06:14:15;101104.16;;;6.83;83.67
44979;BME280;67464;52.438;-1.904;2023-02-19T06:16:41;101106.42;;;6.50;81.81
44979;BME280;67464;52.438;-1.904;2023-02-19T06:19:07;101106.65;;;6.14;84.73
44979;BME280;67464;52.438;-1.904;2023-02-19T06:21:33;101114.59;;;6.24;82.70
44979;BME280;67464;52.438;-1.904;2023-02-19T06:24:03;101121.33;;;6.14;84.72
44979;BME280;67464;52.438;-1.904;2023-02-19T06:26:25;101130.38;;;6.19;86.36
44979;BME280;67464;52.438;-1.904;2023-02-19T06:28:52;101130.90;;;6.33;86.52
44979;BME280;67464;52.438;-1.904;2023-02-19T06:31:17;101124.88;;;6.24;87.39
44979;BME280;67464;52.438;-1.904;2023-02-19T06:33:42;101129.03;;;5.72;87.09
44979;BME280;67464;52.438;-1.904;2023-02-19T06:36:10;101118.54;;;6.27;85.54
44979;BME280;67464;52.438;-1.904;2023-02-19T06:38:34;101117.70;;;6.74;81.33
44979;BME280;67464;52.438;-1.904;2023-02-19T06:41:00;101117.20;;;7.13;76.90
44979;BME280;67464;52.438;-1.904;2023-02-19T06:43:25;101116.53;;;7.09;76.62
44979;BME280;67464;52.438;-1.904;2023-02-19T06:45:51;101123.82;;;6.64;76.92
44979;BME280;67464;52.438;-1.904;2023-02-19T06:48:17;101121.63;;;6.39;78.09
44979;BME280;67464;52.438;-1.904;2023-02-19T06:50:42;101118.25;;;6.91;80.45
44979;BME280;67464;52.438;-1.904;2023-02-19T06:53:08;101119.41;;;5.87;87.12
44979;BME280;67464;52.438;-1.904;2023-02-19T06:55:34;101119.01;;;5.69;90.54
44979;BME280;67464;52.438;-1.904;2023-02-19T06:58:00;101120.38;;;6.10;86.21
44979;BME280;67464;52.438;-1.904;2023-02-19T07:00:26;101113.30;;;6.16;85.75
44979;BME280;67464;52.438;-1.904;2023-02-19T07:02:51;101123.31;;;6.97;81.22
44979;BME280;67464;52.438;-1.904;2023-02-19T07:05:17;101132.12;;;6.90;76.83
44979;BME280;67464;52.438;-1.904;2023-02-19T07:07:44;101127.92;;;6.70;77.13
44979;BME280;67464;52.438;-1.904;2023-02-19T07:10:09;101128.31;;;6.96;77.85
44979;BME280;67464;52.438;-1.904;2023-02-19T07:12:35;101135.57;;;6.18;80.17
44979;BME280;67464;52.438;-1.904;2023-02-19T07:15:00;101154.73;;;6.52;82.11
44979;BME280;67464;52.438;-1.904;2023-02-19T07:17:26;101129.85;;;6.20;82.60
44979;BME280;67464;52.438;-1.904;2023-02-19T07:19:52;101136.09;;;6.21;82.22
44979;BME280;67464;52.438;-1.904;2023-02-19T07:22:18;101145.56;;;6.46;82.27
44979;BME280;67464;52.438;-1.904;2023-02-19T07:24:43;101156.34;;;6.46;80.97
44979;BME280;67464;52.438;-1.904;2023-02-19T07:27:09;101166.63;;;5.97;85.88
44979;BME280;67464;52.438;-1.904;2023-02-19T07:29:35;101168.69;;;6.21;89.26
44979;BME280;67464;52.438;-1.904;2023-02-19T07:32:01;101181.96;;;5.74;88.57
44979;BME280;67464;52.438;-1.904;2023-02-19T07:34:27;101181.59;;;5.72;91.02
44979;BME280;67464;52.438;-1.904;2023-02-19T07:36:52;101206.27;;;5.94;94.19
44979;BME280;67464;52.438;-1.904;2023-02-19T07:39:18;101216.70;;;5.41;90.28
44979;BME280;67464;52.438;-1.904;2023-02-19T07:41:44;101216.49;;;5.32;91.88
44979;BME280;67464;52.438;-1.904;2023-02-19T07:44:09;101208.37;;;5.79;89.62
44979;BME280;67464;52.438;-1.904;2023-02-19T07:46:35;101202.23;;;6.28;86.74
44979;BME280;67464;52.438;-1.904;2023-02-19T07:49:01;101173.91;;;6.37;84.57
44979;BME280;67464;52.438;-1.904;2023-02-19T07:51:27;101147.20;;;6.85;84.59
44979;BME280;67464;52.438;-1.904;2023-02-19T07:53:53;101135.97;;;6.38;84.32
44979;BME280;67464;52.438;-1.904;2023-02-19T07:56:19;101129.18;;;5.83;86.18
44979;BME280;67464;52.438;-1.904;2023-02-19T07:58:44;101130.76;;;6.39;84.22
44979;BME280;67464;52.438;-1.904;2023-02-19T08:01:13;101145.82;;;6.62;82.01
44979;BME280;67464;52.438;-1.904;2023-02-19T08:03:37;101174.14;;;6.20;81.29
44979;BME280;67464;52.438;-1.904;2023-02-19T08:06:02;101195.59;;;6.57;78.16
44979;BME280;67464;52.438;-1.904;2023-02-19T08:08:27;101198.61;;;7.14;73.88
44979;BME280;67464;52.438;-1.904;2023-02-19T08:10:53;101200.50;;;8.51;68.32
44979;BME280;67464;52.438;-1.904;2023-02-19T08:13:19;101199.35;;;9.97;61.35
44979;BME280;67464;52.438;-1.904;2023-02-19T08:15:45;101191.44;;;10.23;56.79
44979;BME280;67464;52.438;-1.904;2023-02-19T08:18:12;101188.07;;;10.32;56.79
44979;BME280;67464;52.438;-1.904;2023-02-19T08:20:36;101179.05;;;9.77;58.69
44979;BME280;67464;52.438;-1.904;2023-02-19T08:23:02;101194.74;;;9.44;60.23
44979;BME280;67464;52.438;-1.904;2023-02-19T08:25:28;101190.45;;;10.24;57.06
44979;BME280;67464;52.438;-1.904;2023-02-19T08:27:53;101195.58;;;11.32;55.27
44979;BME280;67464;52.438;-1.904;2023-02-19T08:30:20;101203.92;;;11.78;52.04
44979;BME280;67464;52.438;-1.904;2023-02-19T08:32:45;101196.77;;;11.14;51.71
44979;BME280;67464;52.438;-1.904;2023-02-19T08:35:10;101198.23;;;11.39;51.27
44979;BME280;67464;52.438;-1.904;2023-02-19T08:37:36;101208.09;;;10.49;51.99
44979;BME280;67464;52.438;-1.904;2023-02-19T08:40:02;101211.77;;;10.35;54.34
44979;BME280;67464;52.438;-1.904;2023-02-19T08:42:27;101212.35;;;10.25;55.30
44979;BME280;67464;52.438;-1.904;2023-02-19T08:44:53;101208.58;;;10.09;54.46
44979;BME280;67464;52.438;-1.904;2023-02-19T08:47:18;101206.66;;;10.91;52.61
44979;BME280;67464;52.438;-1.904;2023-02-19T08:49:44;101206.91;;;12.02;49.98
44979;BME280;67464;52.438;-1.904;2023-02-19T08:52:10;101213.92;;;11.89;49.64
44979;BME280;67464;52.438;-1.904;2023-02-19T08:54:36;101216.41;;;11.45;49.04
44979;BME280;67464;52.438;-1.904;2023-02-19T08:57:01;101228.86;;;12.18;47.74
44979;BME280;67464;52.438;-1.904;2023-02-19T08:59:28;101227.52;;;12.53;47.51
44979;BME280;67464;52.438;-1.904;2023-02-19T09:01:53;101224.40;;;14.22;44.09
44979;BME280;67464;52.438;-1.904;2023-02-19T09:04:18;101227.84;;;14.88;42.80
44979;BME280;67464;52.438;-1.904;2023-02-19T09:06:44;101231.13;;;15.06;40.73
44979;BME280;67464;52.438;-1.904;2023-02-19T09:09:10;101232.20;;;15.08;41.52
44979;BME280;67464;52.438;-1.904;2023-02-19T09:11:37;101237.99;;;16.31;38.79
44979;BME280;67464;52.438;-1.904;2023-02-19T09:14:01;101239.43;;;16.10;37.63
44979;BME280;67464;52.438;-1.904;2023-02-19T09:16:27;101243.28;;;16.77;36.83
44979;BME280;67464;52.438;-1.904;2023-02-19T09:18:52;101243.99;;;17.03;35.89
44979;BME280;67464;52.438;-1.904;2023-02-19T09:21:18;101247.70;;;17.67;34.50
44979;BME280;67464;52.438;-1.904;2023-02-19T09:23:43;101237.17;;;16.52;35.29
44979;BME280;67464;52.438;-1.904;2023-02-19T09:26:09;101228.56;;;17.16;35.15
44979;BME280;67464;52.438;-1.904;2023-02-19T09:28:35;101231.19;;;15.02;38.12
44979;BME280;67464;52.438;-1.904;2023-02-19T09:31:03;101236.94;;;14.64;39.76
44979;BME280;67464;52.438;-1.904;2023-02-19T09:33:25;101244.02;;;13.77;41.49
44979;BME280;67464;52.438;-1.904;2023-02-19T09:35:51;101253.30;;;13.54;41.44
44979;BME280;67464;52.438;-1.904;2023-02-19T09:38:17;101262.20;;;13.25;42.94
44979;BME280;67464;52.438;-1.904;2023-02-19T09:40:42;101269.43;;;11.66;45.05
44979;BME280;67464;52.438;-1.904;2023-02-19T09:43:12;101272.45;;;11.84;47.34
44979;BME280;67464;52.438;-1.904;2023-02-19T09:45:34;101276.14;;;11.46;49.46
44979;BME280;67464;52.438;-1.904;2023-02-19T09:47:59;101277.33;;;10.95;49.49
44979;BME280;67464;52.438;-1.904;2023-02-19T09:50:32;101290.56;;;10.61;49.59
44979;BME280;67464;52.438;-1.904;2023-02-19T09:52:53;101290.88;;;10.67;50.10
44979;BME280;67464;52.438;-1.904;2023-02-19T09:55:19;101290.05;;;11.48;50.98
44979;BME280;67464;52.438;-1.904;2023-02-19T09:57:42;101288.58;;;11.76;49.68
44979;BME280;67464;52.438;-1.904;2023-02-19T10:00:19;101284.34;;;11.96;48.75
44979;BME280;67464;52.438;-1.904;2023-02-19T10:02:33;101287.94;;;10.52;51.89
44979;BME280;67464;52.438;-1.904;2023-02-19T10:04:58;101292.74;;;11.35;49.56
44979;BME280;67464;52.438;-1.904;2023-02-19T10:07:29;101295.94;;;10.52;51.15
44979;BME280;67464;52.438;-1.904;2023-02-19T10:09:53;101295.49;;;10.85;51.33
44979;BME280;67464;52.438;-1.904;2023-02-19T10:12:18;101306.31;;;10.91;52.60
44979;BME280;67464;52.438;-1.904;2023-02-19T10:14:44;101303.77;;;10.91;52.30
44979;BME280;67464;52.438;-1.904;2023-02-19T10:17:19;101294.59;;;11.73;50.05
44979;BME280;67464;52.438;-1.904;2023-02-19T10:19:32;101285.30;;;11.67;51.73
44979;BME280;67464;52.438;-1.904;2023-02-19T10:21:58;101287.09;;;12.05;49.67
44979;BME280;67464;52.438;-1.904;2023-02-19T10:24:27;101292.45;;;12.17;47.29
44979;BME280;67464;52.438;-1.904;2023-02-19T10:26:49;101299.55;;;11.45;48.20
44979;BME280;67464;52.438;-1.904;2023-02-19T10:29:15;101305.96;;;11.97;46.82
44979;BME280;67464;52.438;-1.904;2023-02-19T10:31:40;101298.27;;;11.43;48.52
44979;BME280;67464;52.438;-1.904;2023-02-19T10:34:16;101300.80;;;11.60;50.88
44979;BME280;67464;52.438;-1.904;2023-02-19T10:36:35;101303.24;;;12.18;48.82
44979;BME280;67464;52.438;-1.904;2023-02-19T10:38:58;101302.79;;;11.39;48.56
44979;BME280;67464;52.438;-1.904;2023-02-19T10:41:24;101295.05;;;11.16;49.39
44979;BME280;67464;52.438;-1.904;2023-02-19T10:43:51;101295.81;;;11.26;50.94
44979;BME280;67464;52.438;-1.904;2023-02-19T10:46:15;101298.38;;;11.96;47.80
44979;BME280;67464;52.438;-1.904;2023-02-19T10:48:43;101296.01;;;11.86;47.53
44979;BME280;67464;52.438;-1.904;2023-02-19T10:51:07;101285.71;;;11.39;48.42
44979;BME280;67464;52.438;-1.904;2023-02-19T10:53:39;101286.25;;;12.41;48.87
44979;BME280;67464;52.438;-1.904;2023-02-19T10:56:04;101285.73;;;12.62;46.43
44979;BME280;67464;52.438;-1.904;2023-02-19T10:58:23;101283.71;;;12.29;45.65
44979;BME280;67464;52.438;-1.904;2023-02-19T11:00:46;101280.34;;;12.48;46.10
44979;BME280;67464;52.438;-1.904;2023-02-19T11:03:18;101272.37;;;13.12;45.91
44979;BME280;67464;52.438;-1.904;2023-02-19T11:05:38;101269.29;;;12.74;44.03
44979;BME280;67464;52.438;-1.904;2023-02-19T11:08:03;101278.40;;;12.92;45.42
44979;BME280;67464;52.438;-1.904;2023-02-19T11:10:31;101279.20;;;13.44;43.54
44979;BME280;67464;52.438;-1.904;2023-02-19T11:12:56;101278.21;;;12.29;45.87
44979;BME280;67464;52.438;-1.904;2023-02-19T11:15:21;101273.49;;;11.78;48.35
44979;BME280;67464;52.438;-1.904;2023-02-19T11:17:54;101281.79;;;11.81;47.82
44979;BME280;67464;52.438;-1.904;2023-02-19T11:20:14;101278.55;;;12.21;48.06
44979;BME280;67464;52.438;-1.904;2023-02-19T11:22:38;101282.78;;;11.71;47.24
44979;BME280;67464;52.438;-1.904;2023-02-19T11:25:05;101286.27;;;10.90;48.82
44979;BME280;67464;52.438;-1.904;2023-02-19T11:27:27;101282.74;;;12.20;49.00
44979;BME280;67464;52.438;-1.904;2023-02-19T11:29:53;101282.88;;;13.02;49.91
44979;BME280;67464;52.438;-1.904;2023-02-19T11:32:24;101279.45;;;12.46;47.59
44979;BME280;67464;52.438;-1.904;2023-02-19T11:34:44;101269.35;;;12.88;48.25
44979;BME280;67464;52.438;-1.904;2023-02-19T11:37:11;101261.39;;;13.27;45.26
44979;BME280;67464;52.438;-1.904;2023-02-19T11:39:35;101262.88;;;11.76;47.34
44979;BME280;67464;52.438;-1.904;2023-02-19T11:42:13;101257.81;;;11.78;48.10
44979;BME280;67464;52.438;-1.904;2023-02-19T11:44:34;101246.16;;;11.70;48.19
44979;BME280;67464;52.438;-1.904;2023-02-19T11:47:00;101244.09;;;13.53;46.80
44979;BME280;67464;52.438;-1.904;2023-02-19T11:49:26;101242.95;;;12.89;44.32
44979;BME280;67464;52.438;-1.904;2023-02-19T11:51:52;101239.61;;;13.93;45.62
44979;BME280;67464;52.438;-1.904;2023-02-19T11:54:20;101245.64;;;13.03;45.35
44979;BME280;67464;52.438;-1.904;2023-02-19T11:56:36;101242.56;;;13.55;45.10
44979;BME280;67464;52.438;-1.904;2023-02-19T11:59:01;101233.17;;;13.31;44.01
44979;BME280;67464;52.438;-1.904;2023-02-19T12:01:34;101236.33;;;13.78;44.49
44979;BME280;67464;52.438;-1.904;2023-02-19T12:06:22;101236.05;;;13.06;47.43
44979;BME280;67464;52.438;-1.904;2023-02-19T12:08:58;101243.01;;;13.62;44.70
44979;BME280;67464;52.438;-1.904;2023-02-19T12:11:19;101258.39;;;12.39;47.01
44979;BME280;67464;52.438;-1.904;2023-02-19T12:13:41;101257.99;;;12.79;45.60
44979;BME280;67464;52.438;-1.904;2023-02-19T12:16:10;101253.82;;;13.13;46.41
44979;BME280;67464;52.438;-1.904;2023-02-19T12:18:37;101258.87;;;12.96;46.11
44979;BME280;67464;52.438;-1.904;2023-02-19T12:20:54;101258.59;;;12.83;47.76
44979;BME280;67464;52.438;-1.904;2023-02-19T12:23:25;101254.39;;;13.10;46.32
44979;BME280;67464;52.438;-1.904;2023-02-19T12:25:48;101247.66;;;13.73;44.44
44979;BME280;67464;52.438;-1.904;2023-02-19T12:28:20;101235.19;;;14.56;44.95
44979;BME280;67464;52.438;-1.904;2023-02-19T12:30:43;101230.86;;;15.71;40.76
44979;BME280;67464;52.438;-1.904;2023-02-19T12:33:23;101234.39;;;16.57;38.57
44979;BME280;67464;52.438;-1.904;2023-02-19T12:37:53;101236.47;;;16.04;39.75
44979;BME280;67464;52.438;-1.904;2023-02-19T12:40:22;101216.40;;;15.55;38.90
44979;BME280;67464;52.438;-1.904;2023-02-19T12:42:48;101203.88;;;15.66;38.75